createdAt,value
2023-03-27T00:00:51.691Z,7.75
2023-03-27T00:01:52.056Z,7.69
2023-03-27T00:02:52.289Z,7.69
2023-03-27T00:03:52.837Z,7.67
2023-03-27T00:04:52.822Z,7.59
2023-03-27T00:05:52.991Z,7.60
2023-03-27T00:06:53.282Z,7.55
2023-03-27T00:07:53.595Z,7.53
2023-03-27T00:08:54.297Z,7.52
2023-03-27T00:09:55.000Z,7.53
2023-03-27T00:10:54.665Z,7.50
2023-03-27T00:11:54.628Z,7.52
2023-03-27T00:12:55.767Z,7.45
2023-03-27T00:13:55.259Z,7.42
2023-03-27T00:14:55.736Z,7.42
2023-03-27T00:15:55.934Z,7.41
2023-03-27T00:16:56.260Z,7.42
2023-03-27T00:17:56.502Z,7.38
2023-03-27T00:18:57.901Z,7.35
2023-03-27T00:19:57.025Z,7.29
2023-03-27T00:20:57.635Z,7.29
2023-03-27T00:21:58.208Z,7.29
2023-03-27T00:22:57.958Z,7.27
2023-03-27T00:23:58.580Z,7.26
2023-03-27T00:24:58.667Z,7.23
2023-03-27T00:25:58.788Z,7.23
2023-03-27T00:26:59.191Z,7.20
2023-03-27T00:27:59.715Z,7.20
2023-03-27T00:28:59.720Z,7.20
2023-03-27T00:30:01.141Z,7.19
2023-03-27T00:31:00.605Z,7.17
2023-03-27T00:32:00.537Z,7.17
2023-03-27T00:33:01.180Z,7.17
2023-03-27T00:34:01.250Z,7.16
2023-03-27T00:35:01.412Z,7.17
2023-03-27T00:36:01.860Z,7.17
2023-03-27T00:37:02.026Z,7.15
2023-03-27T00:38:02.351Z,7.13
2023-03-27T00:39:02.747Z,7.12
2023-03-27T00:40:02.859Z,7.08
2023-03-27T00:41:03.383Z,7.12
2023-03-27T00:42:03.629Z,7.13
2023-03-27T00:43:03.858Z,7.13
2023-03-27T00:44:04.123Z,7.09
2023-03-27T00:45:04.425Z,7.09
2023-03-27T00:46:04.713Z,7.13
2023-03-27T00:47:04.968Z,7.13
2023-03-27T00:48:05.454Z,7.13
2023-03-27T00:49:05.691Z,7.08
2023-03-27T00:50:05.901Z,7.09
2023-03-27T00:51:06.163Z,7.08
2023-03-27T00:52:06.427Z,7.07
2023-03-27T00:53:06.689Z,7.05
2023-03-27T00:54:07.073Z,7.02
2023-03-27T00:55:07.296Z,6.98
2023-03-27T00:56:07.695Z,6.98
2023-03-27T00:57:08.014Z,6.99
2023-03-27T00:58:08.393Z,7.01
2023-03-27T00:59:08.507Z,6.98
2023-03-27T01:00:09.513Z,7.01
2023-03-27T01:01:10.032Z,6.98
2023-03-27T01:02:13.989Z,6.98
2023-03-27T01:03:09.839Z,6.94
2023-03-27T01:04:10.049Z,6.95
2023-03-27T01:05:10.371Z,6.94
2023-03-27T01:06:10.700Z,6.94
2023-03-27T01:07:11.109Z,6.91
2023-03-27T01:08:11.291Z,6.94
2023-03-27T01:09:11.520Z,6.95
2023-03-27T01:10:12.875Z,6.90
2023-03-27T01:11:12.182Z,6.94
2023-03-27T01:12:12.467Z,6.87
2023-03-27T01:13:12.749Z,6.89
2023-03-27T01:14:13.083Z,6.86
2023-03-27T01:15:13.319Z,6.86
2023-03-27T01:16:13.754Z,6.89
2023-03-27T01:17:13.926Z,6.86
2023-03-27T01:18:14.211Z,6.89
2023-03-27T01:19:14.492Z,6.90
2023-03-27T01:20:14.860Z,6.87
2023-03-27T01:21:15.113Z,6.90
2023-03-27T01:22:15.468Z,6.89
2023-03-27T01:23:15.767Z,6.94
2023-03-27T01:24:17.069Z,6.91
2023-03-27T01:25:16.384Z,6.90
2023-03-27T01:26:16.670Z,6.89
2023-03-27T01:27:16.974Z,6.87
2023-03-27T01:28:17.299Z,6.90
2023-03-27T01:29:17.593Z,6.91
2023-03-27T01:30:17.877Z,6.87
2023-03-27T01:31:18.173Z,6.86
2023-03-27T01:32:18.473Z,6.86
2023-03-27T01:33:18.808Z,6.84
2023-03-27T01:34:19.115Z,6.83
2023-03-27T01:35:19.467Z,6.81
2023-03-27T01:36:19.728Z,6.81
2023-03-27T01:37:20.017Z,6.80
2023-03-27T01:38:20.270Z,6.81
2023-03-27T01:39:20.648Z,6.80
2023-03-27T01:40:21.475Z,6.80
2023-03-27T01:41:21.188Z,6.80
2023-03-27T01:42:21.512Z,6.76
2023-03-27T01:43:21.786Z,6.77
2023-03-27T01:44:22.164Z,6.73
2023-03-27T01:45:22.327Z,6.72
2023-03-27T01:46:22.648Z,6.71
2023-03-27T01:47:23.027Z,6.69
2023-03-27T01:48:23.261Z,6.69
2023-03-27T01:49:23.514Z,6.66
2023-03-27T01:50:23.820Z,6.62
2023-03-27T01:51:24.148Z,6.62
2023-03-27T01:52:24.422Z,6.62
2023-03-27T01:53:24.732Z,6.54
2023-03-27T01:54:25.071Z,6.56
2023-03-27T01:55:25.374Z,6.54
2023-03-27T01:56:25.680Z,6.53
2023-03-27T01:57:25.931Z,6.48
2023-03-27T01:58:26.279Z,6.43
2023-03-27T01:59:26.546Z,6.40
2023-03-27T02:00:26.974Z,6.29
2023-03-27T02:01:28.236Z,6.25
2023-03-27T02:02:27.441Z,6.21
2023-03-27T02:03:27.725Z,6.14
2023-03-27T02:04:28.044Z,6.16
2023-03-27T02:05:28.243Z,6.10
2023-03-27T02:06:28.631Z,6.07
2023-03-27T02:07:28.863Z,6.01
2023-03-27T02:08:29.131Z,5.98
2023-03-27T02:09:29.519Z,5.95
2023-03-27T02:10:29.781Z,5.93
2023-03-27T02:11:30.093Z,5.95
2023-03-27T02:12:30.420Z,5.92
2023-03-27T02:13:30.705Z,5.91
2023-03-27T02:14:31.023Z,5.85
2023-03-27T02:15:31.323Z,5.86
2023-03-27T02:16:31.652Z,5.82
2023-03-27T02:17:31.888Z,5.83
2023-03-27T02:18:32.237Z,5.85
2023-03-27T02:19:32.491Z,5.82
2023-03-27T02:20:32.839Z,5.75
2023-03-27T02:21:33.188Z,5.68
2023-03-27T02:22:37.835Z,5.68
2023-03-27T02:23:34.794Z,5.71
2023-03-27T02:24:34.073Z,5.67
2023-03-27T02:25:34.398Z,5.67
2023-03-27T02:26:34.686Z,5.64
2023-03-27T02:27:34.965Z,5.63
2023-03-27T02:28:35.329Z,5.55
2023-03-27T02:29:35.555Z,5.57
2023-03-27T02:30:35.879Z,5.52
2023-03-27T02:31:36.514Z,5.52
2023-03-27T02:32:36.762Z,5.52
2023-03-27T02:33:36.817Z,5.46
2023-03-27T02:34:37.127Z,5.41
2023-03-27T02:35:37.429Z,5.40
2023-03-27T02:36:37.824Z,5.37
2023-03-27T02:37:37.918Z,5.34
2023-03-27T02:38:38.280Z,5.35
2023-03-27T02:39:38.578Z,5.34
2023-03-27T02:40:39.984Z,5.32
2023-03-27T02:41:39.161Z,5.32
2023-03-27T02:42:39.470Z,5.32
2023-03-27T02:43:39.804Z,5.32
2023-03-27T02:44:47.310Z,5.32
2023-03-27T02:45:41.381Z,5.34
2023-03-27T02:46:40.700Z,5.31
2023-03-27T02:47:41.236Z,5.28
2023-03-27T02:48:41.280Z,5.27
2023-03-27T02:49:41.544Z,5.23
2023-03-27T02:50:41.884Z,5.16
2023-03-27T02:51:42.108Z,5.16
2023-03-27T02:52:42.574Z,5.14
2023-03-27T02:53:42.715Z,5.13
2023-03-27T02:54:43.067Z,5.12
2023-03-27T02:55:43.309Z,5.07
2023-03-27T02:56:43.704Z,5.09
2023-03-27T02:57:51.520Z,5.07
2023-03-27T02:58:45.273Z,5.02
2023-03-27T02:59:44.564Z,5.04
2023-03-27T03:00:44.867Z,5.01
2023-03-27T03:01:45.183Z,4.98
2023-03-27T03:02:45.722Z,4.94
2023-03-27T03:03:46.186Z,4.96
2023-03-27T03:04:46.124Z,4.91
2023-03-27T03:05:46.325Z,4.88
2023-03-27T03:06:46.634Z,4.88
2023-03-27T03:07:47.028Z,4.86
2023-03-27T03:08:47.257Z,4.84
2023-03-27T03:09:47.600Z,4.83
2023-03-27T03:10:47.897Z,4.83
2023-03-27T03:11:48.182Z,4.79
2023-03-27T03:12:48.517Z,4.76
2023-03-27T03:13:48.827Z,4.77
2023-03-27T03:14:49.350Z,4.76
2023-03-27T03:15:50.548Z,4.75
2023-03-27T03:16:49.779Z,4.75
2023-03-27T03:17:50.063Z,4.75
2023-03-27T03:18:50.349Z,4.70
2023-03-27T03:19:50.577Z,4.73
2023-03-27T03:20:50.923Z,4.73
2023-03-27T03:21:51.238Z,4.69
2023-03-27T03:22:51.610Z,4.70
2023-03-27T03:23:57.862Z,4.65
2023-03-27T03:24:53.168Z,4.69
2023-03-27T03:25:52.633Z,4.65
2023-03-27T03:26:52.961Z,4.64
2023-03-27T03:27:53.167Z,4.64
2023-03-27T03:29:01.092Z,4.67
2023-03-27T03:29:54.763Z,4.69
2023-03-27T03:30:54.247Z,4.59
2023-03-27T03:31:55.298Z,4.59
2023-03-27T03:32:54.747Z,4.61
2023-03-27T03:33:54.975Z,4.62
2023-03-27T03:34:55.268Z,4.58
2023-03-27T03:35:55.601Z,4.59
2023-03-27T03:36:55.915Z,4.58
2023-03-27T03:37:56.198Z,4.59
2023-03-27T03:38:56.502Z,4.61
2023-03-27T03:39:56.826Z,4.57
2023-03-27T03:40:57.357Z,4.57
2023-03-27T03:41:57.457Z,4.57
2023-03-27T03:42:57.673Z,4.52
2023-03-27T03:43:58.005Z,4.55
2023-03-27T03:44:58.313Z,4.52
2023-03-27T03:45:58.685Z,4.57
2023-03-27T03:46:58.938Z,4.58
2023-03-27T03:47:59.359Z,4.54
2023-03-27T03:48:59.571Z,4.52
2023-03-27T03:49:59.799Z,4.51
2023-03-27T03:51:00.178Z,4.50
2023-03-27T03:52:03.195Z,4.46
2023-03-27T03:53:00.802Z,4.47
2023-03-27T03:54:00.997Z,4.50
2023-03-27T03:55:01.336Z,4.46
2023-03-27T03:56:01.602Z,4.50
2023-03-27T03:57:01.954Z,4.47
2023-03-27T03:58:02.189Z,4.44
2023-03-27T03:59:02.556Z,4.44
2023-03-27T04:00:02.842Z,4.44
2023-03-27T04:01:03.184Z,4.42
2023-03-27T04:02:03.556Z,4.42
2023-03-27T04:03:03.893Z,4.42
2023-03-27T04:04:04.726Z,4.43
2023-03-27T04:05:08.736Z,4.44
2023-03-27T04:06:05.770Z,4.46
2023-03-27T04:07:04.880Z,4.46
2023-03-27T04:08:05.098Z,4.47
2023-03-27T04:09:05.394Z,4.47
2023-03-27T04:10:05.620Z,4.47
2023-03-27T04:11:05.916Z,4.46
2023-03-27T04:12:06.189Z,4.46
2023-03-27T04:13:06.604Z,4.46
2023-03-27T04:14:06.741Z,4.44
2023-03-27T04:15:08.038Z,4.43
2023-03-27T04:16:07.315Z,4.44
2023-03-27T04:17:07.568Z,4.40
2023-03-27T04:18:08.089Z,4.39
2023-03-27T04:19:08.312Z,4.39
2023-03-27T04:20:08.529Z,4.39
2023-03-27T04:21:08.801Z,4.40
2023-03-27T04:22:09.118Z,4.36
2023-03-27T04:23:09.479Z,4.33
2023-03-27T04:24:09.558Z,4.32
2023-03-27T04:25:09.844Z,4.34
2023-03-27T04:26:10.200Z,4.34
2023-03-27T04:27:10.497Z,4.33
2023-03-27T04:28:10.789Z,4.34
2023-03-27T04:29:11.048Z,4.33
2023-03-27T04:30:11.283Z,4.29
2023-03-27T04:31:11.784Z,4.28
2023-03-27T04:32:11.921Z,4.33
2023-03-27T04:33:12.228Z,4.34
2023-03-27T04:34:12.441Z,4.39
2023-03-27T04:35:12.749Z,4.34
2023-03-27T04:36:13.138Z,4.29
2023-03-27T04:37:13.349Z,4.33
2023-03-27T04:38:13.643Z,4.29
2023-03-27T04:39:13.917Z,4.28
2023-03-27T04:40:14.194Z,4.25
2023-03-27T04:41:14.542Z,4.25
2023-03-27T04:42:14.792Z,4.25
2023-03-27T04:43:15.061Z,4.25
2023-03-27T04:44:15.312Z,4.25
2023-03-27T04:45:15.664Z,4.29
2023-03-27T04:46:16.002Z,4.25
2023-03-27T04:47:16.126Z,4.22
2023-03-27T04:48:16.421Z,4.22
2023-03-27T04:49:17.045Z,4.19
2023-03-27T04:50:17.163Z,4.24
2023-03-27T04:51:17.543Z,4.22
2023-03-27T04:52:17.674Z,4.22
2023-03-27T04:53:17.888Z,4.22
2023-03-27T04:54:18.301Z,4.21
2023-03-27T04:55:18.550Z,4.24
2023-03-27T04:56:18.840Z,4.22
2023-03-27T04:57:19.332Z,4.22
2023-03-27T04:58:19.507Z,4.26
2023-03-27T04:59:19.834Z,4.22
2023-03-27T05:00:20.138Z,4.18
2023-03-27T05:01:20.378Z,4.19
2023-03-27T05:02:20.578Z,4.18
2023-03-27T05:03:20.994Z,4.21
2023-03-27T05:04:21.220Z,4.22
2023-03-27T05:05:21.404Z,4.24
2023-03-27T05:06:21.713Z,4.24
2023-03-27T05:07:22.207Z,4.26
2023-03-27T05:08:22.370Z,4.24
2023-03-27T05:09:22.724Z,4.25
2023-03-27T05:10:22.988Z,4.28
2023-03-27T05:11:23.167Z,4.28
2023-03-27T05:12:23.948Z,4.26
2023-03-27T05:13:23.839Z,4.24
2023-03-27T05:14:24.242Z,4.21
2023-03-27T05:15:24.572Z,4.18
2023-03-27T05:16:24.963Z,4.19
2023-03-27T05:17:25.174Z,4.16
2023-03-27T05:18:25.936Z,4.18
2023-03-27T05:19:26.706Z,4.14
2023-03-27T05:20:25.838Z,4.16
2023-03-27T05:21:26.966Z,4.16
2023-03-27T05:22:26.378Z,4.21
2023-03-27T05:23:26.665Z,4.22
2023-03-27T05:24:28.310Z,4.19
2023-03-27T05:25:27.320Z,4.19
2023-03-27T05:26:28.703Z,4.22
2023-03-27T05:27:27.866Z,4.19
2023-03-27T05:28:28.137Z,4.19
2023-03-27T05:29:28.381Z,4.18
2023-03-27T05:30:28.674Z,4.22
2023-03-27T05:31:28.938Z,4.21
2023-03-27T05:32:29.504Z,4.18
2023-03-27T05:33:30.033Z,4.16
2023-03-27T05:34:30.300Z,4.21
2023-03-27T05:35:30.085Z,4.15
2023-03-27T05:36:30.424Z,4.15
2023-03-27T05:37:30.512Z,4.14
2023-03-27T05:38:30.716Z,4.12
2023-03-27T05:39:31.148Z,4.08
2023-03-27T05:40:31.366Z,4.08
2023-03-27T05:41:31.697Z,4.04
2023-03-27T05:42:31.911Z,4.04
2023-03-27T05:43:38.258Z,4.06
2023-03-27T05:44:32.468Z,4.07
2023-03-27T05:45:32.687Z,4.10
2023-03-27T05:46:33.119Z,4.08
2023-03-27T05:47:33.311Z,4.14
2023-03-27T05:48:33.515Z,4.14
2023-03-27T05:49:34.434Z,4.08
2023-03-27T05:50:34.176Z,4.10
2023-03-27T05:51:34.486Z,4.14
2023-03-27T05:52:34.708Z,4.14
2023-03-27T05:53:34.975Z,4.14
2023-03-27T05:54:35.182Z,4.12
2023-03-27T05:55:35.527Z,4.14
2023-03-27T05:56:35.923Z,4.15
2023-03-27T05:57:36.110Z,4.18
2023-03-27T05:58:36.375Z,4.24
2023-03-27T05:59:36.610Z,4.26
2023-03-27T06:00:36.840Z,4.28
2023-03-27T06:01:37.085Z,4.26
2023-03-27T06:02:37.351Z,4.26
2023-03-27T06:03:37.718Z,4.29
2023-03-27T06:04:37.846Z,4.34
2023-03-27T06:05:38.050Z,4.34
2023-03-27T06:06:39.257Z,4.37
2023-03-27T06:07:40.891Z,4.39
2023-03-27T06:08:39.029Z,4.36
2023-03-27T06:09:39.419Z,4.39
2023-03-27T06:10:39.563Z,4.37
2023-03-27T06:11:39.756Z,4.36
2023-03-27T06:12:39.938Z,4.40
2023-03-27T06:13:40.338Z,4.44
2023-03-27T06:14:40.607Z,4.44
2023-03-27T06:15:40.903Z,4.44
2023-03-27T06:16:41.204Z,4.47
2023-03-27T06:17:41.418Z,4.52
2023-03-27T06:18:41.647Z,4.55
2023-03-27T06:19:41.977Z,4.50
2023-03-27T06:20:42.142Z,4.52
2023-03-27T06:21:42.522Z,4.54
2023-03-27T06:22:42.755Z,4.61
2023-03-27T06:23:43.114Z,4.64
2023-03-27T06:24:43.439Z,4.65
2023-03-27T06:25:43.758Z,4.67
2023-03-27T06:26:43.967Z,4.65
2023-03-27T06:27:44.252Z,4.72
2023-03-27T06:28:44.503Z,4.70
2023-03-27T06:29:44.775Z,4.77
2023-03-27T06:30:45.024Z,4.79
2023-03-27T06:31:45.321Z,4.80
2023-03-27T06:32:45.601Z,4.92
2023-03-27T06:33:45.872Z,4.95
2023-03-27T06:34:46.073Z,4.95
2023-03-27T06:35:53.664Z,4.98
2023-03-27T06:36:47.749Z,4.99
2023-03-27T06:37:49.445Z,5.05
2023-03-27T06:38:47.482Z,5.10
2023-03-27T06:39:47.680Z,5.14
2023-03-27T06:40:47.921Z,5.19
2023-03-27T06:41:50.714Z,5.20
2023-03-27T06:42:48.487Z,5.28
2023-03-27T06:43:48.822Z,5.31
2023-03-27T06:44:49.036Z,5.34
2023-03-27T06:45:49.346Z,5.38
2023-03-27T06:46:49.590Z,5.32
2023-03-27T06:47:54.345Z,5.34
2023-03-27T06:48:51.160Z,5.35
2023-03-27T06:49:50.447Z,5.37
2023-03-27T06:50:50.676Z,5.31
2023-03-27T06:51:50.951Z,5.35
2023-03-27T06:52:51.174Z,5.35
2023-03-27T06:53:51.463Z,5.31
2023-03-27T06:54:51.632Z,5.27
2023-03-27T06:55:52.032Z,5.17
2023-03-27T06:56:52.383Z,5.25
2023-03-27T06:57:52.595Z,5.25
2023-03-27T06:58:52.780Z,5.27
2023-03-27T06:59:53.128Z,5.32
2023-03-27T07:00:53.378Z,5.35
2023-03-27T07:01:53.704Z,5.41
2023-03-27T07:02:53.953Z,5.50
2023-03-27T07:03:54.147Z,5.63
2023-03-27T07:05:03.669Z,5.70
2023-03-27T07:05:56.006Z,5.71
2023-03-27T07:06:55.012Z,5.75
2023-03-27T07:07:55.305Z,5.83
2023-03-27T07:08:55.626Z,5.77
2023-03-27T07:09:56.060Z,5.82
2023-03-27T07:11:10.791Z,5.86
2023-03-27T07:11:57.529Z,6.00
2023-03-27T07:12:56.787Z,6.07
2023-03-27T07:13:57.052Z,6.18
2023-03-27T07:14:57.359Z,6.19
2023-03-27T07:15:57.571Z,6.26
2023-03-27T07:16:57.801Z,6.28
2023-03-27T07:17:58.075Z,6.26
2023-03-27T07:19:01.208Z,6.29
2023-03-27T07:19:58.977Z,6.32
2023-03-27T07:20:59.274Z,6.47
2023-03-27T07:21:59.184Z,6.53
2023-03-27T07:22:59.413Z,6.61
2023-03-27T07:23:59.741Z,6.66
2023-03-27T07:25:00.003Z,6.72
2023-03-27T07:26:00.329Z,6.69
2023-03-27T07:27:00.479Z,6.71
2023-03-27T07:28:00.824Z,6.73
2023-03-27T07:29:01.150Z,6.84
2023-03-27T07:30:01.525Z,6.84
2023-03-27T07:31:01.761Z,6.81
2023-03-27T07:32:06.272Z,6.83
2023-03-27T07:33:03.373Z,6.83
2023-03-27T07:34:02.806Z,6.97
2023-03-27T07:35:02.899Z,6.99
2023-03-27T07:36:03.290Z,7.02
2023-03-27T07:37:03.489Z,7.13
2023-03-27T07:38:03.843Z,7.24
2023-03-27T07:39:04.102Z,7.24
2023-03-27T07:40:04.414Z,7.35
2023-03-27T07:41:04.584Z,7.42
2023-03-27T07:42:04.954Z,7.49
2023-03-27T07:43:05.240Z,7.50
2023-03-27T07:44:05.475Z,7.56
2023-03-27T07:45:05.810Z,7.53
2023-03-27T07:46:06.193Z,7.59
2023-03-27T07:47:06.269Z,7.63
2023-03-27T07:48:06.678Z,7.71
2023-03-27T07:49:06.891Z,7.67
2023-03-27T07:50:07.261Z,7.71
2023-03-27T07:51:13.869Z,7.84
2023-03-27T07:52:08.927Z,7.74
2023-03-27T07:53:08.455Z,7.77
2023-03-27T07:54:08.385Z,7.81
2023-03-27T07:55:08.615Z,7.84
2023-03-27T07:56:08.981Z,7.82
2023-03-27T07:57:09.346Z,7.82
2023-03-27T07:58:09.585Z,7.87
2023-03-27T07:59:09.803Z,7.90
2023-03-27T08:00:10.136Z,7.96
2023-03-27T08:01:10.402Z,8.08
2023-03-27T08:02:10.694Z,8.10
2023-03-27T08:03:11.083Z,8.25
2023-03-27T08:04:11.265Z,8.07
2023-03-27T08:05:11.607Z,7.90
2023-03-27T08:06:11.895Z,7.89
2023-03-27T08:07:12.108Z,7.99
2023-03-27T08:08:12.423Z,8.14
2023-03-27T08:09:12.585Z,8.12
2023-03-27T08:10:12.984Z,8.26
2023-03-27T08:11:23.159Z,8.39
2023-03-27T08:12:14.489Z,8.50
2023-03-27T08:13:13.809Z,8.65
2023-03-27T08:14:13.979Z,8.81
2023-03-27T08:15:14.310Z,8.91
2023-03-27T08:16:14.552Z,9.05
2023-03-27T08:17:16.624Z,9.30
2023-03-27T08:18:15.104Z,9.52
2023-03-27T08:19:15.315Z,9.75
2023-03-27T08:20:15.773Z,9.83
2023-03-27T08:21:15.966Z,9.97
2023-03-27T08:22:16.220Z,9.96
2023-03-27T08:23:16.544Z,9.91
2023-03-27T08:24:16.725Z,9.85
2023-03-27T08:25:17.048Z,9.38
2023-03-27T08:26:17.302Z,9.48
2023-03-27T08:27:17.554Z,9.40
2023-03-27T08:28:17.880Z,9.50
2023-03-27T08:29:18.104Z,9.20
2023-03-27T08:30:18.497Z,9.64
2023-03-27T08:31:18.770Z,9.88
2023-03-27T08:32:19.161Z,9.83
2023-03-27T08:33:19.432Z,10.12
2023-03-27T08:34:19.706Z,10.26
2023-03-27T08:35:19.975Z,10.52
2023-03-27T08:36:20.242Z,10.63
2023-03-27T08:37:20.456Z,10.53
2023-03-27T08:38:26.645Z,10.80
2023-03-27T08:39:21.939Z,11.10
2023-03-27T08:40:21.252Z,10.86
2023-03-27T08:41:21.455Z,10.46
2023-03-27T08:42:21.874Z,10.47
2023-03-27T08:43:22.122Z,9.91
2023-03-27T08:44:22.388Z,9.42
2023-03-27T08:45:22.683Z,9.46
2023-03-27T08:46:23.007Z,9.96
2023-03-27T08:47:23.253Z,9.61
2023-03-27T08:48:23.468Z,9.30
2023-03-27T08:49:23.829Z,9.12
2023-03-27T08:50:26.324Z,9.06
2023-03-27T08:51:24.214Z,8.99
2023-03-27T08:52:24.530Z,8.66
2023-03-27T08:53:24.717Z,8.57
2023-03-27T08:54:24.966Z,8.28
2023-03-27T08:55:25.162Z,8.65
2023-03-27T08:56:25.543Z,9.25
2023-03-27T08:57:25.760Z,9.81
2023-03-27T08:58:29.874Z,10.19
2023-03-27T08:59:26.398Z,10.18
2023-03-27T09:00:26.636Z,9.81
2023-03-27T09:01:26.966Z,9.52
2023-03-27T09:02:27.271Z,9.71
2023-03-27T09:03:28.120Z,9.94
2023-03-27T09:04:27.769Z,10.04
2023-03-27T09:05:28.022Z,10.15
2023-03-27T09:06:28.296Z,10.59
2023-03-27T09:07:28.672Z,10.98
2023-03-27T09:08:28.868Z,11.39
2023-03-27T09:09:29.158Z,11.29
2023-03-27T09:10:29.433Z,10.96
2023-03-27T09:11:29.795Z,10.76
2023-03-27T09:12:29.978Z,10.80
2023-03-27T09:13:30.365Z,10.89
2023-03-27T09:14:30.540Z,10.58
2023-03-27T09:15:30.794Z,10.10
2023-03-27T09:16:31.134Z,9.70
2023-03-27T09:17:31.385Z,9.45
2023-03-27T09:18:31.737Z,9.82
2023-03-27T09:19:31.984Z,10.28
2023-03-27T09:20:32.332Z,10.74
2023-03-27T09:21:32.520Z,11.17
2023-03-27T09:22:32.951Z,11.57
2023-03-27T09:23:33.174Z,11.41
2023-03-27T09:24:33.490Z,11.13
2023-03-27T09:25:33.799Z,10.78
2023-03-27T09:26:34.000Z,10.74
2023-03-27T09:27:34.314Z,10.88
2023-03-27T09:28:34.574Z,10.36
2023-03-27T09:29:34.839Z,10.70
2023-03-27T09:30:35.114Z,11.34
2023-03-27T09:31:35.472Z,11.64
2023-03-27T09:32:35.993Z,11.20
2023-03-27T09:33:36.047Z,10.76
2023-03-27T09:34:36.318Z,10.44
2023-03-27T09:35:36.609Z,10.36
2023-03-27T09:36:36.909Z,10.12
2023-03-27T09:37:37.236Z,9.83
2023-03-27T09:38:37.405Z,10.03
2023-03-27T09:39:37.678Z,10.34
2023-03-27T09:40:38.032Z,11.13
2023-03-27T09:41:38.231Z,11.47
2023-03-27T09:42:38.685Z,11.20
2023-03-27T09:43:38.852Z,10.89
2023-03-27T09:44:39.357Z,11.16
2023-03-27T09:45:39.415Z,11.86
2023-03-27T09:46:39.815Z,12.45
2023-03-27T09:47:40.412Z,12.84
2023-03-27T09:48:40.315Z,13.22
2023-03-27T09:49:40.549Z,13.49
2023-03-27T09:50:40.929Z,13.27
2023-03-27T09:51:41.011Z,13.51
2023-03-27T09:52:41.242Z,13.49
2023-03-27T09:53:41.636Z,12.79
2023-03-27T09:54:41.874Z,12.15
2023-03-27T09:55:42.170Z,11.61
2023-03-27T09:56:42.562Z,11.16
2023-03-27T09:57:42.714Z,10.83
2023-03-27T09:58:42.948Z,10.55
2023-03-27T09:59:43.219Z,10.18
2023-03-27T10:00:43.589Z,9.91
2023-03-27T10:01:43.773Z,9.56
2023-03-27T10:02:44.086Z,9.23
2023-03-27T10:03:44.442Z,8.96
2023-03-27T10:04:44.694Z,8.69
2023-03-27T10:05:44.925Z,8.51
2023-03-27T10:06:45.246Z,8.36
2023-03-27T10:07:45.570Z,8.32
2023-03-27T10:08:45.782Z,8.29
2023-03-27T10:09:46.012Z,8.40
2023-03-27T10:10:46.412Z,9.25
2023-03-27T10:11:46.651Z,9.85
2023-03-27T10:12:47.018Z,10.76
2023-03-27T10:13:47.309Z,11.34
2023-03-27T10:14:47.653Z,11.49
2023-03-27T10:15:47.838Z,11.72
2023-03-27T10:16:48.231Z,12.38
2023-03-27T10:17:48.435Z,13.03
2023-03-27T10:18:48.694Z,13.77
2023-03-27T10:19:49.126Z,13.51
2023-03-27T10:20:49.374Z,13.79
2023-03-27T10:21:49.558Z,12.99
2023-03-27T10:22:50.150Z,12.45
2023-03-27T10:23:50.227Z,12.19
2023-03-27T10:24:54.733Z,11.59
2023-03-27T10:25:50.774Z,11.31
2023-03-27T10:26:51.612Z,10.89
2023-03-27T10:27:51.388Z,10.68
2023-03-27T10:28:51.724Z,10.68
2023-03-27T10:29:52.019Z,11.17
2023-03-27T10:30:52.256Z,10.91
2023-03-27T10:31:52.583Z,10.37
2023-03-27T10:32:52.983Z,10.10
2023-03-27T10:33:53.052Z,9.91
2023-03-27T10:34:53.264Z,9.76
2023-03-27T10:35:53.717Z,9.64
2023-03-27T10:36:53.930Z,10.32
2023-03-27T10:37:54.138Z,10.14
2023-03-27T10:38:54.521Z,10.04
2023-03-27T10:39:54.766Z,10.89
2023-03-27T10:40:55.335Z,12.05
2023-03-27T10:41:55.356Z,13.25
2023-03-27T10:42:55.661Z,14.32
2023-03-27T10:43:55.950Z,14.80
2023-03-27T10:44:56.161Z,14.10
2023-03-27T10:45:56.561Z,14.53
2023-03-27T10:46:56.762Z,15.05
2023-03-27T10:47:56.968Z,14.21
2023-03-27T10:48:57.212Z,13.36
2023-03-27T10:49:57.464Z,12.63
2023-03-27T10:50:57.925Z,12.11
2023-03-27T10:51:57.971Z,11.65
2023-03-27T10:52:58.393Z,11.38
2023-03-27T10:53:58.742Z,11.10
2023-03-27T10:54:58.791Z,10.83
2023-03-27T10:55:59.165Z,10.53
2023-03-27T10:56:59.475Z,10.21
2023-03-27T10:57:59.822Z,9.91
2023-03-27T10:59:00.175Z,9.78
2023-03-27T11:00:00.233Z,9.73
2023-03-27T11:01:00.750Z,9.66
2023-03-27T11:02:02.078Z,9.64
2023-03-27T11:03:01.304Z,9.61
2023-03-27T11:04:01.510Z,9.61
2023-03-27T11:05:01.834Z,9.61
2023-03-27T11:06:02.054Z,9.63
2023-03-27T11:07:02.366Z,9.66
2023-03-27T11:08:02.548Z,9.61
2023-03-27T11:09:02.927Z,9.56
2023-03-27T11:10:03.359Z,9.52
2023-03-27T11:11:03.394Z,9.45
2023-03-27T11:12:03.625Z,9.35
2023-03-27T11:13:04.071Z,9.27
2023-03-27T11:14:04.126Z,9.20
2023-03-27T11:15:04.496Z,9.12
2023-03-27T11:16:04.842Z,9.01
2023-03-27T11:17:05.090Z,8.91
2023-03-27T11:18:05.461Z,8.86
2023-03-27T11:19:06.769Z,8.84
2023-03-27T11:20:05.989Z,8.79
2023-03-27T11:21:06.317Z,8.86
2023-03-27T11:22:06.522Z,8.93
2023-03-27T11:23:06.807Z,8.84
2023-03-27T11:24:07.074Z,8.78
2023-03-27T11:25:07.367Z,9.61
2023-03-27T11:26:07.617Z,10.70
2023-03-27T11:27:07.876Z,11.31
2023-03-27T11:28:08.142Z,11.96
2023-03-27T11:29:08.443Z,12.66
2023-03-27T11:30:08.741Z,13.15
2023-03-27T11:31:12.093Z,13.61
2023-03-27T11:32:09.284Z,14.29
2023-03-27T11:33:09.805Z,14.28
2023-03-27T11:34:09.886Z,14.57
2023-03-27T11:35:10.140Z,15.05
2023-03-27T11:36:10.415Z,15.70
2023-03-27T11:37:10.664Z,15.70
2023-03-27T11:38:10.942Z,16.00
2023-03-27T11:39:11.236Z,16.45
2023-03-27T11:40:12.777Z,15.85
2023-03-27T11:41:12.794Z,15.26
2023-03-27T11:42:12.010Z,14.91
2023-03-27T11:43:12.338Z,15.39
2023-03-27T11:44:12.537Z,15.13
2023-03-27T11:45:13.007Z,14.31
2023-03-27T11:46:13.278Z,13.55
2023-03-27T11:47:13.484Z,12.81
2023-03-27T11:48:13.818Z,12.24
2023-03-27T11:49:14.089Z,12.15
2023-03-27T11:50:14.256Z,12.15
2023-03-27T11:51:14.531Z,13.12
2023-03-27T11:52:14.761Z,13.67
2023-03-27T11:53:15.158Z,13.32
2023-03-27T11:54:15.460Z,13.00
2023-03-27T11:55:15.690Z,12.95
2023-03-27T11:56:15.924Z,13.03
2023-03-27T11:57:16.358Z,13.80
2023-03-27T11:58:16.600Z,13.94
2023-03-27T11:59:16.810Z,14.14
2023-03-27T12:00:17.077Z,14.68
2023-03-27T12:01:17.874Z,15.66
2023-03-27T12:02:17.742Z,16.38
2023-03-27T12:03:17.882Z,16.83
2023-03-27T12:04:18.137Z,16.93
2023-03-27T12:05:18.465Z,17.13
2023-03-27T12:06:18.664Z,17.18
2023-03-27T12:07:33.865Z,17.38
2023-03-27T12:08:20.226Z,17.48
2023-03-27T12:09:19.560Z,17.47
2023-03-27T12:10:25.365Z,17.59
2023-03-27T12:11:21.168Z,17.07
2023-03-27T12:12:20.421Z,16.83
2023-03-27T12:13:22.677Z,16.88
2023-03-27T12:14:23.976Z,16.90
2023-03-27T12:15:22.150Z,17.14
2023-03-27T12:16:21.608Z,17.40
2023-03-27T12:17:21.797Z,17.10
2023-03-27T12:18:25.696Z,17.32
2023-03-27T12:19:29.759Z,17.48
2023-03-27T12:20:23.357Z,17.53
2023-03-27T12:21:22.716Z,17.71
2023-03-27T12:22:24.308Z,17.69
2023-03-27T12:23:23.293Z,17.67
2023-03-27T12:24:23.534Z,17.30
2023-03-27T12:25:23.792Z,17.43
2023-03-27T12:26:24.043Z,17.78
2023-03-27T12:27:24.348Z,17.94
2023-03-27T12:28:24.581Z,18.10
2023-03-27T12:29:24.804Z,18.25
2023-03-27T12:30:25.199Z,17.85
2023-03-27T12:31:25.849Z,17.20
2023-03-27T12:32:25.773Z,16.41
2023-03-27T12:33:26.010Z,15.60
2023-03-27T12:34:26.297Z,14.68
2023-03-27T12:35:26.630Z,13.91
2023-03-27T12:36:26.837Z,13.40
2023-03-27T12:37:27.170Z,13.06
2023-03-27T12:38:27.523Z,12.75
2023-03-27T12:39:28.144Z,12.42
2023-03-27T12:40:27.917Z,11.97
2023-03-27T12:41:28.286Z,11.34
2023-03-27T12:42:28.555Z,10.76
2023-03-27T12:43:28.823Z,10.40
2023-03-27T12:44:29.113Z,10.03
2023-03-27T12:45:29.328Z,9.68
2023-03-27T12:46:29.637Z,9.52
2023-03-27T12:47:29.957Z,9.38
2023-03-27T12:48:30.143Z,9.15
2023-03-27T12:49:44.457Z,8.83
2023-03-27T12:50:31.611Z,8.62
2023-03-27T12:51:30.967Z,8.36
2023-03-27T12:52:31.125Z,8.39
2023-03-27T12:53:31.447Z,8.47
2023-03-27T12:54:31.710Z,8.83
2023-03-27T12:55:32.270Z,9.12
2023-03-27T12:56:32.135Z,9.43
2023-03-27T12:57:32.647Z,9.73
2023-03-27T12:58:32.779Z,9.96
2023-03-27T12:59:33.127Z,10.04
2023-03-27T13:00:33.275Z,10.21
2023-03-27T13:01:45.394Z,10.33
2023-03-27T13:02:35.178Z,10.46
2023-03-27T13:03:34.353Z,10.46
2023-03-27T13:04:36.700Z,10.42
2023-03-27T13:05:34.742Z,10.39
2023-03-27T13:06:35.032Z,10.43
2023-03-27T13:07:35.336Z,10.34
2023-03-27T13:08:35.596Z,10.32
2023-03-27T13:09:35.825Z,10.39
2023-03-27T13:10:36.239Z,9.97
2023-03-27T13:11:36.475Z,9.70
2023-03-27T13:12:36.713Z,9.56
2023-03-27T13:13:36.962Z,9.60
2023-03-27T13:14:37.260Z,9.67
2023-03-27T13:15:37.467Z,9.75